createdAt,value
2019-05-12T00:02:39.453Z,8.28
2019-05-12T00:07:41.388Z,8.09
2019-05-12T00:12:44.595Z,7.99
2019-05-12T00:17:48.137Z,7.84
2019-05-12T00:22:58.015Z,8.05
2019-05-12T00:28:00.459Z,8.09
2019-05-12T00:33:03.897Z,8.06
2019-05-12T00:38:08.954Z,7.97
2019-05-12T00:43:12.199Z,7.92
2019-05-12T00:48:17.657Z,7.87
2019-05-12T00:53:20.523Z,7.90
2019-05-12T00:58:23.670Z,7.74
2019-05-12T01:03:27.911Z,7.69
2019-05-12T01:08:34.095Z,7.71
2019-05-12T01:13:38.252Z,7.54
2019-05-12T01:18:41.352Z,7.39
2019-05-12T01:23:56.413Z,7.50
2019-05-12T01:28:50.000Z,7.45
2019-05-12T01:33:53.153Z,7.49
2019-05-12T01:38:59.153Z,7.56
2019-05-12T01:44:01.145Z,7.58
2019-05-12T01:49:04.045Z,7.58
2019-05-12T01:54:13.831Z,7.43
2019-05-12T01:59:11.895Z,7.44
2019-05-12T02:04:15.046Z,7.38
2019-05-12T02:09:20.640Z,7.35
2019-05-12T02:14:23.776Z,7.17
2019-05-12T02:19:28.255Z,7.15
2019-05-12T02:24:31.576Z,7.08
2019-05-12T02:29:34.781Z,7.03
2019-05-12T02:34:38.005Z,7.07
2019-05-12T02:39:40.633Z,7.03
2019-05-12T02:44:44.437Z,6.88
2019-05-12T02:49:47.670Z,6.96
2019-05-12T02:54:56.910Z,6.96
2019-05-12T02:59:57.693Z,6.83
2019-05-12T03:05:05.377Z,6.55
2019-05-12T03:10:07.763Z,6.49
2019-05-12T03:15:14.886Z,6.31
2019-05-12T03:20:16.197Z,6.28
2019-05-12T03:25:24.651Z,6.04
2019-05-12T03:30:29.084Z,6.17
2019-05-12T03:35:39.421Z,6.28
2019-05-12T03:40:37.673Z,6.32
2019-05-12T03:45:39.519Z,6.20
2019-05-12T03:50:46.184Z,6.10
2019-05-12T03:55:48.271Z,6.13
2019-05-12T04:00:51.097Z,6.13
2019-05-12T04:05:55.342Z,6.11
2019-05-12T04:10:59.131Z,6.05
2019-05-12T04:16:04.899Z,6.14
2019-05-12T04:21:07.794Z,6.25
2019-05-12T04:26:15.778Z,6.30
2019-05-12T04:31:16.397Z,6.61
2019-05-12T04:36:19.653Z,6.56
2019-05-12T04:41:26.031Z,6.87
2019-05-12T04:46:28.071Z,6.97
2019-05-12T04:51:34.642Z,7.17
2019-05-12T04:56:36.364Z,7.26
2019-05-12T05:01:40.056Z,7.25
2019-05-12T05:06:44.858Z,7.61
2019-05-12T05:11:48.247Z,7.79
2019-05-12T05:16:54.101Z,7.88
2019-05-12T05:21:56.380Z,8.13
2019-05-12T05:26:59.997Z,8.44
2019-05-12T05:32:03.527Z,8.35
2019-05-12T05:37:07.099Z,8.62
2019-05-12T05:42:10.573Z,8.67
2019-05-12T05:47:13.993Z,8.79
2019-05-12T05:52:17.273Z,9.00
2019-05-12T05:57:25.797Z,8.93
2019-05-12T06:02:32.058Z,8.93
2019-05-12T06:07:38.915Z,8.99
2019-05-12T06:12:40.358Z,9.28
2019-05-12T06:17:44.276Z,9.31
2019-05-12T06:22:48.747Z,9.39
2019-05-12T06:28:00.188Z,9.50
2019-05-12T06:32:57.438Z,9.37
2019-05-12T06:38:04.997Z,9.45
2019-05-12T06:43:08.556Z,9.64
2019-05-12T06:48:14.043Z,9.78
2019-05-12T06:58:55.538Z,10.15
2019-05-12T07:04:00.594Z,10.26
2019-05-12T07:09:09.918Z,10.44
2019-05-12T07:14:19.041Z,10.56
2019-05-12T07:19:22.481Z,10.63
2019-05-12T07:24:23.859Z,10.94
2019-05-12T07:29:27.302Z,10.81
2019-05-12T07:34:30.474Z,10.96
2019-05-12T07:39:37.038Z,11.19
2019-05-12T07:44:44.083Z,11.34
2019-05-12T07:49:46.777Z,11.31
2019-05-12T07:54:52.857Z,11.32
2019-05-12T07:59:54.764Z,11.49
2019-05-12T08:04:58.005Z,11.71
2019-05-12T08:10:01.224Z,11.82
2019-05-12T08:15:09.308Z,11.90
2019-05-12T08:20:09.532Z,12.19
2019-05-12T08:25:13.696Z,12.24
2019-05-12T08:30:21.445Z,12.29
2019-05-12T08:35:29.022Z,12.35
2019-05-12T08:40:29.571Z,12.45
2019-05-12T08:45:36.764Z,12.57
2019-05-12T08:50:37.573Z,12.45
2019-05-12T08:55:43.568Z,12.59
2019-05-12T09:00:50.409Z,12.76
2019-05-12T09:05:53.666Z,13.13
2019-05-12T09:10:56.952Z,13.16
2019-05-12T09:16:00.141Z,12.96
2019-05-12T09:21:03.892Z,13.12
2019-05-12T09:26:07.412Z,13.25
2019-05-12T09:31:10.586Z,13.11
2019-05-12T09:36:19.936Z,13.08
2019-05-12T09:41:19.323Z,13.38
2019-05-12T09:46:23.283Z,13.46
2019-05-12T09:51:27.005Z,13.49
2019-05-12T09:56:30.660Z,13.77
2019-05-12T10:01:37.408Z,13.85
2019-05-12T10:06:39.091Z,13.48
2019-05-12T10:11:44.717Z,13.43
2019-05-12T10:16:49.690Z,13.68
2019-05-12T10:21:55.159Z,13.89
2019-05-12T10:26:57.601Z,14.08
2019-05-12T10:31:59.774Z,13.79
2019-05-12T10:37:04.174Z,14.19
2019-05-12T10:42:07.566Z,14.10
2019-05-12T10:47:10.567Z,14.05
2019-05-12T10:52:14.205Z,14.23
2019-05-12T10:57:17.704Z,14.19
2019-05-12T11:02:26.500Z,14.48
2019-05-12T11:07:27.985Z,14.49
2019-05-12T11:12:33.225Z,14.43
2019-05-12T11:17:54.475Z,14.65
2019-05-12T11:23:03.573Z,15.06
2019-05-12T11:28:14.012Z,15.12
2019-05-12T11:33:18.683Z,14.88
2019-05-12T11:38:28.183Z,14.75
2019-05-12T11:43:35.660Z,15.21
2019-05-12T11:49:14.013Z,15.07
2019-05-12T11:54:51.252Z,15.42
2019-05-12T12:00:02.251Z,16.09
2019-05-12T12:05:23.520Z,15.90
2019-05-12T12:10:35.508Z,16.16
2019-05-12T12:15:43.954Z,16.88
2019-05-12T12:20:47.353Z,16.61
2019-05-12T12:25:53.444Z,16.22
2019-05-12T12:31:00.830Z,16.70
2019-05-12T12:36:04.295Z,16.43
2019-05-12T12:41:09.431Z,16.73
2019-05-12T12:46:21.620Z,16.33
2019-05-12T12:51:25.259Z,16.89
2019-05-12T12:56:30.072Z,16.58
2019-05-12T13:01:35.753Z,17.08
2019-05-12T13:06:40.241Z,18.22
2019-05-12T13:11:44.427Z,18.04
2019-05-12T13:16:49.422Z,17.58
2019-05-12T13:21:53.193Z,17.78
2019-05-12T13:26:55.977Z,17.93
2019-05-12T13:31:59.537Z,17.81
2019-05-12T13:37:03.441Z,17.89
2019-05-12T13:42:10.213Z,18.42
2019-05-12T13:47:14.076Z,18.27
2019-05-12T13:52:20.287Z,18.06
2019-05-12T13:57:23.628Z,18.74
2019-05-12T14:02:26.971Z,18.92
2019-05-12T14:07:30.478Z,19.16
2019-05-12T14:12:33.600Z,19.61
2019-05-12T14:17:40.326Z,18.98
2019-05-12T14:22:44.553Z,19.56
2019-05-12T14:27:47.050Z,19.97
2019-05-12T14:32:55.197Z,19.76
2019-05-12T14:37:57.774Z,20.03
2019-05-12T14:43:03.757Z,19.91
2019-05-12T14:48:09.270Z,20.22
2019-05-12T14:53:16.719Z,20.11
2019-05-12T14:58:24.747Z,19.66
2019-05-12T15:03:34.853Z,19.53
2019-05-12T15:08:43.615Z,19.84
2019-05-12T15:13:56.391Z,19.94
2019-05-12T15:18:59.879Z,19.88
2019-05-12T15:24:03.970Z,19.69
2019-05-12T15:29:13.641Z,19.12
2019-05-12T15:34:15.103Z,19.40
2019-05-12T15:39:19.441Z,19.47
2019-05-12T15:44:31.166Z,19.57
2019-05-12T15:49:27.729Z,19.42
2019-05-12T15:54:31.144Z,19.63
2019-05-12T15:59:39.708Z,19.38
2019-05-12T16:04:45.333Z,18.82
2019-05-12T16:09:47.591Z,19.58
2019-05-12T16:14:50.966Z,19.22
2019-05-12T16:19:56.695Z,19.01
2019-05-12T16:25:04.118Z,18.88
2019-05-12T16:30:10.601Z,18.80
2019-05-12T16:35:20.359Z,18.44
2019-05-12T16:40:26.361Z,19.17
2019-05-12T16:45:30.280Z,19.30
2019-05-12T16:50:34.646Z,18.70
2019-05-12T16:55:44.898Z,18.37
2019-05-12T17:00:45.233Z,18.07
2019-05-12T17:05:50.053Z,18.28
2019-05-12T17:11:00.923Z,18.42
2019-05-12T17:16:00.265Z,17.97
2019-05-12T17:21:04.359Z,17.82
2019-05-12T17:26:08.013Z,17.81
2019-05-12T17:31:11.599Z,17.55
2019-05-12T17:36:17.892Z,17.70
2019-05-12T17:41:19.934Z,16.81
2019-05-12T17:46:23.387Z,16.05
2019-05-12T17:51:30.774Z,15.50
2019-05-12T17:56:37.261Z,15.09
2019-05-12T18:01:37.269Z,14.78
2019-05-12T18:06:40.620Z,14.77
2019-05-12T18:11:46.137Z,14.57
2019-05-12T18:16:53.598Z,15.25
2019-05-12T18:22:03.432Z,14.55
2019-05-12T18:27:07.223Z,13.96
2019-05-12T18:32:08.515Z,13.78
2019-05-12T18:37:13.632Z,13.56
2019-05-12T18:42:16.340Z,13.41
2019-05-12T18:47:31.563Z,13.19
2019-05-12T18:52:29.198Z,13.19
2019-05-12T18:57:39.133Z,12.90
2019-05-12T19:02:39.621Z,12.65
2019-05-12T19:07:43.892Z,12.33
2019-05-12T19:12:51.747Z,12.37
2019-05-12T19:17:54.445Z,12.11
2019-05-12T19:23:00.050Z,11.93
2019-05-12T19:28:08.682Z,11.87
2019-05-12T19:33:10.674Z,11.86
2019-05-12T19:38:17.072Z,11.56
2019-05-12T19:43:20.594Z,11.33
2019-05-12T19:48:27.498Z,11.28
2019-05-12T19:53:29.927Z,11.39
2019-05-12T19:58:34.076Z,11.24
2019-05-12T20:03:37.621Z,11.15
2019-05-12T20:08:43.554Z,10.97
2019-05-12T20:13:46.049Z,10.89
2019-05-12T20:18:49.390Z,10.83
2019-05-12T20:23:54.271Z,10.60
2019-05-12T20:28:57.054Z,10.60
2019-05-12T20:34:04.214Z,10.51
2019-05-12T20:39:09.832Z,10.51
2019-05-12T20:44:16.966Z,10.41
2019-05-12T20:49:20.200Z,10.27
2019-05-12T20:54:23.929Z,10.13
2019-05-12T20:59:28.397Z,9.82
2019-05-12T21:04:37.059Z,9.72
2019-05-12T21:09:36.838Z,9.73
2019-05-12T21:14:42.604Z,9.86
2019-05-12T21:19:55.596Z,9.70
2019-05-12T21:24:50.465Z,9.57
2019-05-12T21:29:54.166Z,9.61
2019-05-12T21:34:59.470Z,9.63
2019-05-12T21:40:03.582Z,9.58
2019-05-12T21:45:08.391Z,9.75
2019-05-12T21:50:13.843Z,9.74
2019-05-12T21:55:21.690Z,9.68
2019-05-12T22:00:27.973Z,9.65
2019-05-12T22:05:48.096Z,9.37
2019-05-12T22:10:36.339Z,9.11
2019-05-12T22:15:38.474Z,8.96
2019-05-12T22:20:46.120Z,9.11
2019-05-12T22:25:49.194Z,9.05
2019-05-12T22:30:53.968Z,8.88
2019-05-12T22:36:04.916Z,8.71
2019-05-12T22:41:01.561Z,8.85
2019-05-12T22:46:04.784Z,8.81
2019-05-12T22:51:17.476Z,8.68
2019-05-12T22:56:17.431Z,8.65
2019-05-12T23:01:16.802Z,8.64
2019-05-12T23:06:24.093Z,8.50
2019-05-12T23:11:31.844Z,8.20
2019-05-12T23:16:29.655Z,8.12
2019-05-12T23:21:32.973Z,8.25
2019-05-12T23:26:41.986Z,8.27
2019-05-12T23:31:40.920Z,8.14
2019-05-12T23:36:44.568Z,8.06
2019-05-12T23:41:47.920Z,7.85
2019-05-12T23:46:50.984Z,7.82
2019-05-12T23:51:54.314Z,7.67
2019-05-12T23:56:57.929Z,7.55
